Cape Girardeau Regional Airport Cape Girardeau US
ICAO: KCGI
IATA: CGI
Category: Medium
Scheduled Services: Yes

Elevation: 342 ft
TransAlt. 18000 ft.

Airport Communications:
ASOS:120.55
MEMPHIS CNTR:133.65
CTAF:119
GND:121.6
ST LOUIS RDO:122.4
TWR:119
UNICOM:122.95

KCGI Zoom In..

If you have problems with the map follow the link
https://www.worldairports.se/pages/airport.php?
ICAO=KCGI

Runways:

(A) RW 02 length 3997 ft width 100 ft
---- / hdg 23

(B) RW 10 length 6500 ft width 150 ft
ILS 109.50 / hdg 108

(C) RW 20 length 3997 ft width 100 ft
---- / hdg 203

(D) RW 28 length 6500 ft width 150 ft
---- / hdg 288

Location; KCGI
Day. 16 / Time. 02.53 Zulu
* Altimeter: 29.96
* Temperature: 02° c. 35.6°f.
* Wind from: 010° Speed 08 kn.
Dewpoint: 01° c.
Visibility: 2 m.
Clouds: Overcast 600 ft.
Conditions: Mist.

KCGI 160253Z AUTO 01008KT 2 1/2SM UP BR OVC006 02/01 A2996 RMK AO2 UPB15RAB26E40 SLP147 P0001 60003 T00170006 50003


Wind From 010°
Speed 08 kn.

 
 
jpsmedia worldairports.se 2019   terms of use